Terminal Aerodrome Forecast
Issued by NWS Sterling, VA

Current Version | Previous Version | Graphics & Text | Print | Product List | Glossary On
Versions: 1 2 3 4 5 6 7 8 9 10 11 12 13 14 15 16 17 18 19 20 21
000
FTUS41 KLWX 242328
TAFDCA
TAF
KDCA 242328Z 2500/2524 30008KT P6SM SCT250
     FM250600 35004KT P6SM SCT090 BKN200
     FM251100 35004KT P6SM BKN090
     FM251900 25006KT P6SM OVC090
     FM252100 21009KT 5SM -RA SCT015 OVC050=

USA.gov is the U.S. government's official web portal to all federal, state and local government web resources and services.